createdAt,value
2019-05-26T00:00:34.853Z,9.29
2019-05-26T00:02:10.072Z,9.27
2019-05-26T00:03:44.722Z,9.22
2019-05-26T00:05:31.997Z,9.22
2019-05-26T00:07:07.434Z,9.26
2019-05-26T00:08:42.191Z,9.31
2019-05-26T00:10:17.752Z,9.29
2019-05-26T00:11:52.407Z,9.33
2019-05-26T00:13:31.858Z,9.33
2019-05-26T00:15:07.123Z,9.28
2019-05-26T00:16:43.942Z,9.30
2019-05-26T00:18:18.580Z,9.32
2019-05-26T00:19:53.796Z,9.39
2019-05-26T00:21:31.295Z,9.31
2019-05-26T00:23:06.618Z,9.21
2019-05-26T00:24:48.085Z,9.23
2019-05-26T00:26:28.336Z,9.23
2019-05-26T00:28:03.575Z,9.30
2019-05-26T00:29:38.237Z,9.17
2019-05-26T00:31:21.534Z,9.17
2019-05-26T00:32:56.776Z,9.23
2019-05-26T00:34:32.010Z,9.30
2019-05-26T00:36:06.657Z,9.24
2019-05-26T00:37:50.374Z,9.16
2019-05-26T00:39:29.810Z,9.23
2019-05-26T00:41:10.750Z,9.28
2019-05-26T00:42:45.458Z,9.23
2019-05-26T00:44:20.776Z,9.15
2019-05-26T00:46:00.410Z,9.21
2019-05-26T00:47:37.312Z,9.04
2019-05-26T00:49:12.018Z,9.12
2019-05-26T00:50:47.356Z,9.21
2019-05-26T00:52:22.051Z,9.10
2019-05-26T00:53:57.332Z,9.17
2019-05-26T00:55:32.051Z,9.08
2019-05-26T00:57:14.053Z,9.11
2019-05-26T00:58:48.696Z,9.12
2019-05-26T01:00:45.563Z,9.18
2019-05-26T01:02:20.397Z,9.23
2019-05-26T01:03:55.655Z,8.99
2019-05-26T01:05:30.305Z,9.11
2019-05-26T01:07:05.593Z,9.09
2019-05-26T01:08:40.337Z,9.16
2019-05-26T01:10:15.717Z,9.09
2019-05-26T01:12:02.569Z,9.09
2019-05-26T01:13:37.810Z,9.06
2019-05-26T01:15:12.567Z,8.93
2019-05-26T01:16:47.862Z,9.02
2019-05-26T01:18:22.512Z,8.89
2019-05-26T01:20:02.651Z,8.94
2019-05-26T01:21:37.294Z,8.98
2019-05-26T01:23:12.526Z,9.06
2019-05-26T01:24:47.169Z,8.88
2019-05-26T01:26:22.484Z,8.84
2019-05-26T01:27:57.110Z,8.88
2019-05-26T01:29:35.408Z,9.01
2019-05-26T01:31:21.950Z,9.09
2019-05-26T01:32:57.296Z,9.04
2019-05-26T01:34:33.641Z,8.98
2019-05-26T01:36:11.952Z,9.08
2019-05-26T01:37:46.867Z,9.01
2019-05-26T01:39:22.164Z,8.92
2019-05-26T01:40:56.820Z,8.94
2019-05-26T01:42:32.034Z,9.04
2019-05-26T01:44:06.723Z,8.88
2019-05-26T01:45:42.921Z,8.87
2019-05-26T01:47:17.552Z,8.95
2019-05-26T01:48:52.762Z,8.96
2019-05-26T01:50:27.415Z,9.10
2019-05-26T01:52:04.343Z,8.84
2019-05-26T01:53:39.013Z,8.93
2019-05-26T01:55:14.388Z,8.91
2019-05-26T01:56:49.055Z,8.79
2019-05-26T01:58:34.561Z,8.83
2019-05-26T02:00:10.128Z,8.78
2019-05-26T02:01:51.507Z,8.66
2019-05-26T02:03:26.736Z,8.81
2019-05-26T02:05:01.399Z,8.84
2019-05-26T02:06:36.708Z,8.97
2019-05-26T02:08:14.482Z,8.81
2019-05-26T02:09:49.693Z,8.77
2019-05-26T02:11:24.317Z,8.99
2019-05-26T02:12:59.719Z,8.91
2019-05-26T02:14:34.513Z,8.78
2019-05-26T02:16:09.924Z,8.91
2019-05-26T02:17:44.755Z,9.10
2019-05-26T02:19:20.286Z,9.04
2019-05-26T02:20:54.909Z,9.10
2019-05-26T02:22:30.162Z,8.95
2019-05-26T02:24:04.990Z,8.88
2019-05-26T02:25:40.286Z,8.94
2019-05-26T02:27:17.743Z,8.86
2019-05-26T02:28:52.991Z,8.89
2019-05-26T02:30:27.760Z,8.88
2019-05-26T02:32:03.076Z,8.97
2019-05-26T02:33:45.267Z,9.05
2019-05-26T02:35:21.524Z,8.92
2019-05-26T02:36:56.156Z,8.99
2019-05-26T02:38:31.466Z,9.05
2019-05-26T02:40:07.869Z,8.98
2019-05-26T02:41:43.096Z,9.06
2019-05-26T02:43:17.780Z,9.00
2019-05-26T02:44:53.011Z,8.91
2019-05-26T02:46:27.645Z,8.91
2019-05-26T02:48:02.860Z,8.98
2019-05-26T02:49:37.843Z,9.08
2019-05-26T02:51:15.021Z,9.14
2019-05-26T02:52:54.444Z,8.98
2019-05-26T02:54:29.676Z,8.88
2019-05-26T02:56:04.524Z,8.99
2019-05-26T02:57:39.758Z,9.11
2019-05-26T02:59:14.383Z,9.12
2019-05-26T03:00:49.742Z,9.06
2019-05-26T03:02:24.815Z,9.00
2019-05-26T03:04:00.099Z,9.09
2019-05-26T03:05:34.823Z,9.04
2019-05-26T03:07:10.829Z,9.00
2019-05-26T03:08:46.395Z,8.99
2019-05-26T03:10:21.688Z,9.14
2019-05-26T03:11:57.413Z,9.08
2019-05-26T03:13:35.461Z,9.15
2019-05-26T03:15:18.106Z,9.13
2019-05-26T03:16:53.594Z,9.28
2019-05-26T03:18:37.014Z,9.35
2019-05-26T03:20:14.634Z,9.20
2019-05-26T03:21:49.744Z,9.28
2019-05-26T03:23:25.848Z,9.24
2019-05-26T03:25:01.650Z,9.27
2019-05-26T03:26:36.991Z,9.24
2019-05-26T03:28:13.550Z,9.45
2019-05-26T03:29:48.751Z,9.31
2019-05-26T03:31:26.356Z,9.37
2019-05-26T03:33:01.599Z,9.40
2019-05-26T03:34:39.333Z,9.67
2019-05-26T03:36:14.550Z,9.67
2019-05-26T03:37:49.212Z,9.47
2019-05-26T03:39:42.600Z,9.47
2019-05-26T03:41:00.762Z,9.78
2019-05-26T03:42:36.089Z,9.68
2019-05-26T03:44:11.670Z,9.62
2019-05-26T03:46:18.315Z,9.81
2019-05-26T03:47:59.116Z,9.84
2019-05-26T03:49:35.434Z,10.03
2019-05-26T03:51:10.659Z,9.90
2019-05-26T03:52:45.382Z,9.96
2019-05-26T03:54:32.029Z,9.96
2019-05-26T03:56:07.308Z,10.14
2019-05-26T03:57:41.949Z,10.24
2019-05-26T03:59:18.272Z,10.08
2019-05-26T04:00:52.939Z,10.08
2019-05-26T04:02:28.222Z,10.24
2019-05-26T04:04:06.134Z,10.24
2019-05-26T04:05:41.376Z,10.25
2019-05-26T04:07:16.043Z,10.19
2019-05-26T04:08:51.296Z,10.27
2019-05-26T04:10:30.306Z,10.50
2019-05-26T04:12:05.793Z,10.56
2019-05-26T04:13:48.992Z,10.56
2019-05-26T04:15:24.235Z,10.56
2019-05-26T04:16:59.829Z,10.56
2019-05-26T04:18:35.146Z,10.52
2019-05-26T04:20:11.657Z,10.51
2019-05-26T04:21:46.939Z,10.49
2019-05-26T04:23:21.599Z,10.46
2019-05-26T04:24:56.894Z,10.68
2019-05-26T04:26:36.425Z,10.68
2019-05-26T04:28:11.666Z,10.74
2019-05-26T04:29:48.571Z,10.74
2019-05-26T04:31:23.790Z,10.96
2019-05-26T04:32:58.689Z,10.96
2019-05-26T04:34:33.916Z,10.94
2019-05-26T04:36:11.420Z,11.12
2019-05-26T04:37:46.677Z,11.12
2019-05-26T04:39:21.306Z,11.32
2019-05-26T04:40:56.570Z,11.32
2019-05-26T04:42:34.737Z,11.35
2019-05-26T04:44:09.959Z,11.27
2019-05-26T04:45:44.700Z,11.49
2019-05-26T04:47:19.971Z,11.97
2019-05-26T04:48:57.830Z,11.83
2019-05-26T04:50:33.147Z,11.83
2019-05-26T04:52:16.491Z,12.16
2019-05-26T04:54:00.784Z,12.94
2019-05-26T04:55:35.513Z,13.54
2019-05-26T04:57:21.899Z,13.54
2019-05-26T04:58:56.592Z,13.83
2019-05-26T05:00:31.936Z,13.13
2019-05-26T05:02:06.613Z,13.11
2019-05-26T05:03:45.005Z,12.98
2019-05-26T05:05:19.759Z,12.93
2019-05-26T05:06:54.992Z,12.95
2019-05-26T05:08:29.636Z,12.73
2019-05-26T05:10:05.864Z,12.93
2019-05-26T05:11:40.562Z,13.09
2019-05-26T05:13:20.427Z,13.17
2019-05-26T05:14:55.176Z,13.59
2019-05-26T05:16:30.560Z,12.89
2019-05-26T05:18:05.402Z,13.21
2019-05-26T05:19:40.658Z,13.39
2019-05-26T05:21:15.428Z,13.52
2019-05-26T05:22:53.201Z,14.04
2019-05-26T05:24:28.038Z,13.96
2019-05-26T05:26:03.328Z,14.02
2019-05-26T05:27:38.117Z,14.41
2019-05-26T05:29:13.417Z,14.45
2019-05-26T05:30:48.210Z,14.80
2019-05-26T05:32:23.435Z,15.22
2019-05-26T05:33:58.111Z,15.04
2019-05-26T05:35:33.473Z,15.37
2019-05-26T05:37:17.282Z,15.60
2019-05-26T05:38:59.660Z,15.72
2019-05-26T05:40:34.379Z,15.15
2019-05-26T05:42:09.628Z,16.35
2019-05-26T05:43:50.344Z,15.64
2019-05-26T05:45:25.583Z,17.17
2019-05-26T05:47:00.290Z,18.41
2019-05-26T05:48:35.535Z,18.81
2019-05-26T05:50:19.852Z,18.81
2019-05-26T05:51:55.148Z,19.69
2019-05-26T05:53:29.790Z,20.37
2019-05-26T05:55:05.205Z,20.05
2019-05-26T05:56:55.452Z,19.55
2019-05-26T05:58:17.296Z,18.43
2019-05-26T05:59:51.940Z,20.49
2019-05-26T06:01:34.527Z,19.52
2019-05-26T06:03:18.301Z,18.68
2019-05-26T06:04:52.463Z,17.87
2019-05-26T06:06:27.698Z,18.36
2019-05-26T06:08:02.522Z,19.35
2019-05-26T06:09:37.760Z,18.47
2019-05-26T06:11:17.284Z,19.17
2019-05-26T06:12:52.497Z,18.85
2019-05-26T06:14:31.888Z,18.35
2019-05-26T06:16:07.131Z,18.58
2019-05-26T06:17:41.842Z,18.47
2019-05-26T06:19:17.196Z,17.88
2019-05-26T06:20:52.014Z,17.33
2019-05-26T06:22:30.033Z,16.90
2019-05-26T06:24:04.896Z,16.81
2019-05-26T06:25:43.056Z,16.46
2019-05-26T06:27:17.718Z,17.36
2019-05-26T06:28:56.090Z,17.69
2019-05-26T06:30:31.656Z,17.59
2019-05-26T06:32:08.086Z,17.42
2019-05-26T06:33:44.560Z,17.44
2019-05-26T06:35:19.786Z,16.62
2019-05-26T06:36:54.647Z,16.79
2019-05-26T06:38:29.909Z,17.26
2019-05-26T06:40:20.585Z,17.20
2019-05-26T06:41:55.844Z,17.32
2019-05-26T06:43:33.316Z,17.14
2019-05-26T06:45:09.007Z,18.13
2019-05-26T06:46:53.356Z,17.96
2019-05-26T06:48:28.650Z,18.55
2019-05-26T06:50:03.357Z,19.06
2019-05-26T06:51:38.619Z,18.87
2019-05-26T06:53:19.814Z,19.01
2019-05-26T06:54:54.994Z,19.48
2019-05-26T06:56:30.338Z,20.15
2019-05-26T06:58:05.379Z,21.05
2019-05-26T06:59:42.691Z,20.18
2019-05-26T07:01:21.534Z,18.92
2019-05-26T07:02:56.984Z,19.87
2019-05-26T07:04:35.406Z,20.86
2019-05-26T07:06:10.679Z,19.45
2019-05-26T07:07:51.803Z,19.58
2019-05-26T07:09:27.254Z,22.82
2019-05-26T07:11:09.549Z,22.84
2019-05-26T07:12:45.993Z,20.96
2019-05-26T07:14:20.665Z,21.43
2019-05-26T07:15:56.989Z,20.67
2019-05-26T07:17:31.639Z,20.47
2019-05-26T07:19:06.953Z,21.00
2019-05-26T07:20:41.829Z,20.84
2019-05-26T07:22:17.123Z,21.32
2019-05-26T07:23:56.155Z,20.91
2019-05-26T07:25:31.404Z,23.45
2019-05-26T07:27:07.293Z,26.27
2019-05-26T07:28:42.629Z,26.23
2019-05-26T07:30:23.436Z,24.65
2019-05-26T07:31:57.439Z,24.44
2019-05-26T07:33:32.094Z,20.86
2019-05-26T07:35:07.933Z,23.28
2019-05-26T07:36:42.644Z,22.88
2019-05-26T07:38:17.917Z,25.62
2019-05-26T07:39:52.565Z,24.61
2019-05-26T07:41:33.923Z,26.24
2019-05-26T07:43:09.568Z,25.34
2019-05-26T07:44:46.544Z,24.94
2019-05-26T07:46:21.105Z,23.64
2019-05-26T07:47:56.371Z,24.64
2019-05-26T07:49:31.031Z,25.99
2019-05-26T07:51:06.376Z,25.87
2019-05-26T07:52:41.002Z,26.95
2019-05-26T07:54:25.260Z,24.59
2019-05-26T07:55:52.568Z,25.86
2019-05-26T07:57:27.832Z,29.94
2019-05-26T07:59:11.141Z,31.86
2019-05-26T08:00:46.425Z,30.44
2019-05-26T08:02:21.146Z,30.19
2019-05-26T08:03:56.390Z,30.84
2019-05-26T08:05:31.035Z,29.09
2019-05-26T08:07:06.376Z,28.35
2019-05-26T08:08:43.195Z,29.75
2019-05-26T08:10:18.797Z,30.78
2019-05-26T08:11:53.461Z,33.37
2019-05-26T08:13:29.114Z,32.45
2019-05-26T08:15:03.841Z,32.23
2019-05-26T08:16:39.097Z,32.64
2019-05-26T08:18:13.846Z,33.24
2019-05-26T08:19:49.082Z,33.14
2019-05-26T08:21:23.753Z,31.48
2019-05-26T08:23:00.277Z,30.70
2019-05-26T08:24:34.904Z,30.94
2019-05-26T08:26:10.302Z,33.08
2019-05-26T08:27:44.967Z,33.83
2019-05-26T08:29:20.180Z,32.32
2019-05-26T08:30:54.826Z,32.46
2019-05-26T08:32:30.179Z,30.12
2019-05-26T08:34:05.005Z,30.86
2019-05-26T08:35:48.270Z,28.78
2019-05-26T08:37:22.980Z,29.41
2019-05-26T08:38:58.287Z,27.86
2019-05-26T08:40:34.092Z,27.15
2019-05-26T08:42:09.321Z,25.64
2019-05-26T08:43:47.122Z,27.12
2019-05-26T08:45:23.723Z,26.43
2019-05-26T08:47:01.508Z,25.42
2019-05-26T08:48:36.770Z,24.76
2019-05-26T08:50:18.652Z,25.04
2019-05-26T08:51:54.000Z,26.46
2019-05-26T08:53:31.510Z,26.77
2019-05-26T08:55:07.061Z,25.49
2019-05-26T08:56:41.746Z,25.84
2019-05-26T08:58:16.987Z,26.51
2019-05-26T08:59:51.779Z,27.40
2019-05-26T09:01:28.674Z,27.00
2019-05-26T09:03:03.569Z,27.28
2019-05-26T09:04:38.988Z,29.18
2019-05-26T09:06:13.730Z,27.05
2019-05-26T09:07:48.940Z,28.33
2019-05-26T09:09:23.586Z,29.02
2019-05-26T09:10:58.833Z,27.20
2019-05-26T09:12:43.360Z,26.21
2019-05-26T09:14:18.863Z,26.52
2019-05-26T09:16:00.793Z,26.43
2019-05-26T09:17:36.079Z,26.64
2019-05-26T09:19:10.730Z,26.77
2019-05-26T09:20:45.978Z,27.08
2019-05-26T09:22:22.707Z,26.89
2019-05-26T09:23:57.962Z,27.91
2019-05-26T09:25:32.762Z,28.04
2019-05-26T09:27:08.076Z,28.17
2019-05-26T09:28:45.953Z,26.92
2019-05-26T09:30:21.453Z,24.25
2019-05-26T09:31:56.109Z,23.29
2019-05-26T09:33:31.346Z,24.36
2019-05-26T09:35:06.490Z,23.48
2019-05-26T09:36:41.838Z,23.70
2019-05-26T09:38:16.479Z,23.80
2019-05-26T09:39:51.723Z,23.31
2019-05-26T09:41:26.411Z,23.02
2019-05-26T09:43:15.001Z,22.44
2019-05-26T09:44:38.105Z,22.77
2019-05-26T09:46:13.337Z,22.04
2019-05-26T09:47:57.706Z,22.55
2019-05-26T09:49:32.972Z,22.56
2019-05-26T09:51:07.860Z,22.33
2019-05-26T09:52:43.184Z,22.71
2019-05-26T09:54:17.864Z,22.52
2019-05-26T09:55:53.102Z,22.59
2019-05-26T09:57:27.746Z,21.89
2019-05-26T09:59:04.137Z,21.68
2019-05-26T10:00:38.784Z,21.97
2019-05-26T10:02:14.016Z,22.29
2019-05-26T10:03:48.746Z,22.50
2019-05-26T10:05:24.087Z,23.23
2019-05-26T10:06:58.730Z,23.32
2019-05-26T10:08:33.954Z,23.91
2019-05-26T10:10:09.213Z,24.21
2019-05-26T10:11:44.445Z,25.18
2019-05-26T10:13:31.427Z,25.00
2019-05-26T10:15:01.040Z,24.41
2019-05-26T10:16:36.043Z,23.99
2019-05-26T10:18:11.258Z,23.43
2019-05-26T10:19:45.983Z,22.94
2019-05-26T10:21:21.286Z,22.50
2019-05-26T10:22:56.422Z,22.35
2019-05-26T10:24:31.754Z,22.82
2019-05-26T10:26:06.424Z,22.26
2019-05-26T10:27:41.869Z,22.11
2019-05-26T10:29:16.711Z,22.42
2019-05-26T10:30:57.195Z,22.21
2019-05-26T10:32:32.510Z,21.94
2019-05-26T10:34:07.327Z,22.35
2019-05-26T10:35:46.529Z,22.64
2019-05-26T10:37:21.259Z,22.60
2019-05-26T10:38:58.966Z,22.65
2019-05-26T10:40:33.643Z,23.14
2019-05-26T10:42:08.929Z,22.18
2019-05-26T10:43:47.132Z,22.81
2019-05-26T10:45:20.961Z,22.97
2019-05-26T10:46:55.831Z,24.10
2019-05-26T10:48:31.117Z,24.48
2019-05-26T10:50:07.477Z,23.96
2019-05-26T10:51:42.710Z,24.34
2019-05-26T10:53:23.460Z,24.80
2019-05-26T10:54:58.704Z,25.46
2019-05-26T10:56:33.433Z,24.57
2019-05-26T10:58:08.680Z,26.05
2019-05-26T10:59:43.658Z,25.73
2019-05-26T11:01:18.964Z,25.71
2019-05-26T11:02:54.677Z,26.03
2019-05-26T11:04:29.906Z,25.14
2019-05-26T11:06:05.759Z,24.58
2019-05-26T11:07:44.731Z,25.67
2019-05-26T11:09:19.449Z,25.10
2019-05-26T11:10:54.695Z,25.48
2019-05-26T11:12:29.373Z,25.17
2019-05-26T11:14:06.109Z,25.90
2019-05-26T11:15:50.572Z,25.67
2019-05-26T11:17:31.228Z,26.08
2019-05-26T11:19:06.020Z,25.50
2019-05-26T11:20:41.385Z,25.97
2019-05-26T11:22:16.685Z,24.96
2019-05-26T11:23:51.940Z,25.00
2019-05-26T11:25:36.478Z,24.73
2019-05-26T11:27:13.315Z,25.06
2019-05-26T11:28:48.171Z,25.19
2019-05-26T11:30:23.736Z,24.22
2019-05-26T11:31:58.382Z,24.40
2019-05-26T11:33:38.306Z,25.36
2019-05-26T11:35:13.955Z,24.98
2019-05-26T11:36:49.781Z,24.79
2019-05-26T11:38:24.497Z,24.24
2019-05-26T11:39:59.761Z,24.87
2019-05-26T11:41:34.433Z,24.45
2019-05-26T11:43:16.922Z,25.74
2019-05-26T11:44:48.813Z,25.55
2019-05-26T11:46:24.001Z,24.05
2019-05-26T11:47:58.798Z,24.85
2019-05-26T11:49:34.066Z,25.00
2019-05-26T11:51:08.715Z,23.14
2019-05-26T11:52:44.009Z,23.81
2019-05-26T11:54:18.957Z,24.14
2019-05-26T11:55:54.395Z,24.12
2019-05-26T11:57:29.065Z,24.16
2019-05-26T11:59:07.276Z,24.58
2019-05-26T12:00:42.796Z,24.17
2019-05-26T12:02:18.011Z,23.95
2019-05-26T12:03:53.713Z,23.29
2019-05-26T12:05:30.575Z,24.17
2019-05-26T12:07:05.556Z,24.51
2019-05-26T12:08:40.811Z,25.21
2019-05-26T12:10:16.873Z,25.07
2019-05-26T12:11:52.136Z,25.74
2019-05-26T12:13:27.752Z,24.61
2019-05-26T12:15:03.019Z,25.11
2019-05-26T12:16:39.269Z,24.46
2019-05-26T12:18:20.196Z,25.18
2019-05-26T12:19:55.601Z,25.59
2019-05-26T12:21:30.264Z,25.73
2019-05-26T12:23:05.587Z,25.51
2019-05-26T12:24:40.983Z,25.40
2019-05-26T12:26:19.589Z,25.21
2019-05-26T12:27:54.360Z,25.82
2019-05-26T12:29:29.757Z,25.71
2019-05-26T12:31:11.482Z,25.64
2019-05-26T12:32:46.842Z,25.27
2019-05-26T12:34:21.566Z,24.96
2019-05-26T12:35:56.796Z,24.75
2019-05-26T12:37:31.564Z,24.98
2019-05-26T12:39:10.716Z,25.57
2019-05-26T12:40:45.437Z,25.27
2019-05-26T12:42:20.942Z,24.96
2019-05-26T12:43:55.601Z,25.30
2019-05-26T12:45:45.653Z,25.33
2019-05-26T12:47:20.993Z,25.13
2019-05-26T12:49:00.270Z,25.85
2019-05-26T12:50:35.557Z,24.88
2019-05-26T12:52:13.252Z,24.78
2019-05-26T12:53:53.418Z,23.82
2019-05-26T12:55:28.108Z,24.37
2019-05-26T12:57:03.352Z,24.26
2019-05-26T12:58:38.013Z,24.79
2019-05-26T13:00:15.135Z,24.66
2019-05-26T13:01:57.532Z,24.32
2019-05-26T13:03:32.790Z,24.37
2019-05-26T13:05:07.800Z,24.75
2019-05-26T13:06:43.049Z,25.00
2019-05-26T13:08:17.703Z,24.93
2019-05-26T13:09:59.525Z,25.28
2019-05-26T13:11:34.777Z,25.85
2019-05-26T13:13:09.442Z,24.81
2019-05-26T13:15:04.742Z,25.47
2019-05-26T13:16:21.021Z,24.88
2019-05-26T13:17:59.053Z,24.89
2019-05-26T13:19:34.863Z,24.41
2019-05-26T13:21:11.749Z,24.26
2019-05-26T13:22:47.483Z,24.51
2019-05-26T13:24:22.748Z,23.84
2019-05-26T13:25:57.375Z,23.46
2019-05-26T13:27:33.752Z,23.72
2019-05-26T13:29:08.469Z,24.00
2019-05-26T13:30:43.687Z,23.97
2019-05-26T13:32:18.654Z,23.92
2019-05-26T13:33:53.963Z,23.99
2019-05-26T13:35:29.017Z,23.54
2019-05-26T13:37:04.591Z,23.91
2019-05-26T13:38:48.668Z,23.57
2019-05-26T13:40:24.221Z,23.60
2019-05-26T13:41:59.206Z,23.74
2019-05-26T13:43:36.574Z,24.75
2019-05-26T13:45:22.373Z,24.67
2019-05-26T13:46:51.387Z,23.96
2019-05-26T13:48:33.770Z,24.44
2019-05-26T13:50:08.871Z,23.98
2019-05-26T13:51:44.083Z,23.34
2019-05-26T13:53:26.306Z,23.74
2019-05-26T13:55:03.244Z,23.62
2019-05-26T13:56:38.223Z,23.97
2019-05-26T13:58:13.448Z,23.67
2019-05-26T13:59:48.363Z,23.67
2019-05-26T14:01:32.748Z,23.61
2019-05-26T14:03:13.159Z,23.81
2019-05-26T14:04:48.182Z,23.41
2019-05-26T14:06:23.406Z,23.84
2019-05-26T14:07:58.050Z,23.75
2019-05-26T14:09:34.959Z,23.12
2019-05-26T14:11:21.787Z,23.38
2019-05-26T14:12:57.074Z,23.09
2019-05-26T14:14:31.799Z,22.72
2019-05-26T14:16:18.547Z,22.51
2019-05-26T14:17:59.897Z,22.56
2019-05-26T14:19:35.780Z,22.64
2019-05-26T14:21:10.471Z,22.56
2019-05-26T14:22:46.265Z,22.54
2019-05-26T14:24:20.941Z,22.28
2019-05-26T14:26:05.077Z,22.43
2019-05-26T14:27:40.300Z,22.52
2019-05-26T14:29:15.417Z,22.34
2019-05-26T14:30:54.169Z,22.59
2019-05-26T14:32:31.461Z,22.69
2019-05-26T14:34:06.757Z,22.95
2019-05-26T14:35:41.399Z,22.98
2019-05-26T14:37:16.750Z,23.05
2019-05-26T14:38:55.439Z,23.27
2019-05-26T14:40:30.655Z,23.43
2019-05-26T14:42:05.420Z,23.20
2019-05-26T14:43:40.630Z,23.18
2019-05-26T14:45:15.567Z,23.34
2019-05-26T14:46:53.706Z,22.97
2019-05-26T14:48:28.348Z,23.16
2019-05-26T14:50:03.766Z,23.34
2019-05-26T14:51:40.092Z,22.93
2019-05-26T14:53:15.536Z,22.87
2019-05-26T14:54:53.408Z,23.05
2019-05-26T14:56:28.645Z,23.15
2019-05-26T14:58:15.233Z,23.32
2019-05-26T14:59:51.906Z,23.20
2019-05-26T15:01:27.116Z,23.44
2019-05-26T15:03:01.744Z,23.48
2019-05-26T15:04:39.896Z,23.18
2019-05-26T15:06:14.764Z,23.50
2019-05-26T15:07:54.134Z,23.29
2019-05-26T15:09:33.715Z,23.29
2019-05-26T15:11:08.936Z,22.96
2019-05-26T15:12:43.676Z,23.11
2019-05-26T15:14:19.882Z,23.01
2019-05-26T15:16:08.771Z,22.67
2019-05-26T15:17:36.239Z,22.59
2019-05-26T15:19:11.440Z,22.97
2019-05-26T15:20:46.163Z,22.70
2019-05-26T15:22:30.858Z,22.80
2019-05-26T15:24:03.197Z,22.76
2019-05-26T15:25:38.407Z,22.27
2019-05-26T15:27:13.074Z,22.51
2019-05-26T15:28:48.280Z,22.56
2019-05-26T15:30:23.153Z,22.67
2019-05-26T15:31:58.379Z,22.68
2019-05-26T15:33:35.760Z,22.42
2019-05-26T15:35:12.117Z,22.23
2019-05-26T15:36:46.766Z,22.54
2019-05-26T15:38:21.987Z,22.73
2019-05-26T15:39:56.608Z,22.58
2019-05-26T15:41:34.925Z,22.46
2019-05-26T15:43:09.694Z,22.38
2019-05-26T15:44:50.099Z,22.45
2019-05-26T15:46:30.644Z,22.34
2019-05-26T15:48:05.547Z,22.76
2019-05-26T15:49:40.779Z,22.55
2019-05-26T15:51:26.826Z,22.66
2019-05-26T15:53:01.446Z,22.37
2019-05-26T15:54:36.678Z,22.60
2019-05-26T15:56:11.321Z,22.50
2019-05-26T15:57:46.562Z,22.15
2019-05-26T15:59:32.000Z,22.41
2019-05-26T16:01:10.488Z,22.34
2019-05-26T16:02:46.806Z,22.46
2019-05-26T16:04:22.284Z,22.83
2019-05-26T16:05:56.937Z,22.88
2019-05-26T16:07:33.769Z,22.93
2019-05-26T16:09:16.808Z,22.64
2019-05-26T16:10:52.083Z,22.84
2019-05-26T16:12:26.750Z,22.90
2019-05-26T16:14:04.671Z,22.84
2019-05-26T16:15:40.052Z,22.64
2019-05-26T16:17:18.779Z,22.45
2019-05-26T16:18:54.887Z,22.44
2019-05-26T16:20:31.981Z,22.21
2019-05-26T16:22:10.165Z,22.05
2019-05-26T16:23:45.797Z,22.13
2019-05-26T16:25:22.577Z,21.90
2019-05-26T16:27:16.194Z,22.03
2019-05-26T16:28:42.184Z,22.19
2019-05-26T16:30:17.927Z,22.20
2019-05-26T16:31:53.042Z,22.14
2019-05-26T16:33:30.123Z,21.85
2019-05-26T16:35:06.356Z,21.80
2019-05-26T16:36:41.793Z,21.46
2019-05-26T16:38:16.754Z,21.73
2019-05-26T16:39:55.675Z,21.77
2019-05-26T16:41:31.397Z,21.89
2019-05-26T16:43:06.854Z,21.71
2019-05-26T16:44:41.964Z,21.89
2019-05-26T16:46:17.486Z,22.15
2019-05-26T16:47:53.506Z,21.79
2019-05-26T16:49:28.997Z,21.85
2019-05-26T16:51:03.975Z,22.02
2019-05-26T16:52:41.263Z,21.85
2019-05-26T16:54:18.366Z,22.02
2019-05-26T16:55:58.145Z,21.88
2019-05-26T16:57:32.922Z,21.78
2019-05-26T16:59:09.206Z,21.90
2019-05-26T17:00:44.242Z,21.76
2019-05-26T17:02:19.911Z,22.10
2019-05-26T17:04:03.525Z,21.52
2019-05-26T17:05:40.004Z,21.59
2019-05-26T17:07:15.205Z,21.51
2019-05-26T17:08:50.761Z,21.31
2019-05-26T17:10:25.635Z,21.24
2019-05-26T17:12:01.057Z,21.34
2019-05-26T17:13:36.075Z,21.33
2019-05-26T17:15:13.288Z,21.23
2019-05-26T17:16:49.851Z,21.21
2019-05-26T17:20:21.624Z,21.07
2019-05-26T17:21:57.121Z,21.02
2019-05-26T17:23:32.862Z,20.95
2019-05-26T17:25:11.144Z,20.82
2019-05-26T17:26:45.839Z,20.81
2019-05-26T17:28:21.066Z,20.89
2019-05-26T17:29:55.699Z,20.86
2019-05-26T17:31:31.419Z,20.77
2019-05-26T17:33:07.462Z,20.75
2019-05-26T17:34:42.844Z,20.71
2019-05-26T17:36:26.600Z,20.69
2019-05-26T17:38:01.928Z,20.69
2019-05-26T17:39:37.841Z,20.69
2019-05-26T17:41:13.296Z,20.74
2019-05-26T17:42:49.546Z,20.56
2019-05-26T17:44:24.988Z,20.49
2019-05-26T17:45:59.739Z,20.43
2019-05-26T17:47:39.011Z,20.46
2019-05-26T17:49:13.939Z,20.32
2019-05-26T17:50:49.199Z,20.36
2019-05-26T17:52:26.433Z,20.45
2019-05-26T17:54:01.640Z,20.51
2019-05-26T17:55:36.285Z,20.54
2019-05-26T17:57:11.515Z,20.37
2019-05-26T17:58:46.162Z,20.36
2019-05-26T18:00:21.463Z,20.37
2019-05-26T18:01:56.654Z,20.36
2019-05-26T18:03:31.935Z,20.34
2019-05-26T18:05:06.781Z,20.11
2019-05-26T18:06:43.072Z,20.23
2019-05-26T18:08:17.735Z,20.17
2019-05-26T18:09:52.949Z,20.10
2019-05-26T18:11:30.826Z,20.14
2019-05-26T18:13:08.120Z,19.99
2019-05-26T18:14:46.129Z,20.08
2019-05-26T18:16:20.803Z,20.06
2019-05-26T18:17:56.054Z,20.07
2019-05-26T18:19:30.714Z,20.00
2019-05-26T18:21:06.060Z,19.91
2019-05-26T18:22:40.763Z,19.94
2019-05-26T18:24:16.078Z,19.94
2019-05-26T18:25:50.783Z,19.90
2019-05-26T18:27:25.993Z,19.83
2019-05-26T18:29:00.651Z,19.77
2019-05-26T18:32:28.549Z,19.68
2019-05-26T18:34:03.863Z,19.64
2019-05-26T18:35:38.590Z,19.58
2019-05-26T18:37:13.858Z,19.66
2019-05-26T18:38:48.759Z,19.64
2019-05-26T18:40:23.994Z,19.66
2019-05-26T18:41:58.767Z,19.67
2019-05-26T18:43:33.933Z,19.58
2019-05-26T18:45:09.255Z,19.59
2019-05-26T18:47:04.866Z,19.60
2019-05-26T18:48:40.100Z,19.52
2019-05-26T18:50:17.886Z,19.54
2019-05-26T18:51:53.232Z,19.49
2019-05-26T18:53:29.812Z,19.50
2019-05-26T18:55:05.249Z,19.46
2019-05-26T18:56:39.884Z,19.45
2019-05-26T18:58:16.089Z,19.34
2019-05-26T18:59:50.712Z,19.34
2019-05-26T19:01:26.010Z,19.28
2019-05-26T19:03:00.705Z,19.37
2019-05-26T19:04:35.944Z,19.30
2019-05-26T19:06:10.681Z,19.33
2019-05-26T19:07:45.917Z,19.36
2019-05-26T19:09:20.808Z,19.33
2019-05-26T19:10:56.093Z,19.23
2019-05-26T19:12:30.832Z,19.18
2019-05-26T19:14:06.505Z,19.19
2019-05-26T19:15:41.221Z,19.24
2019-05-26T19:17:16.608Z,19.25
2019-05-26T19:18:51.284Z,19.22
2019-05-26T19:20:26.518Z,19.20
2019-05-26T19:22:01.173Z,19.20
2019-05-26T19:23:37.469Z,19.22
2019-05-26T19:25:13.206Z,19.15
2019-05-26T19:26:48.437Z,19.13
2019-05-26T19:28:23.690Z,19.06
2019-05-26T19:29:58.960Z,19.06
2019-05-26T19:31:34.611Z,19.04
2019-05-26T19:33:09.835Z,19.06
2019-05-26T19:34:44.473Z,19.01
2019-05-26T19:36:19.799Z,19.03
2019-05-26T19:37:54.510Z,18.96
2019-05-26T19:39:30.055Z,18.97
2019-05-26T19:41:04.912Z,18.96
2019-05-26T19:42:40.241Z,18.95
2019-05-26T19:44:14.925Z,18.97
2019-05-26T19:45:50.159Z,18.92
2019-05-26T19:47:24.897Z,18.98
2019-05-26T19:49:00.167Z,18.95
2019-05-26T19:50:35.118Z,18.88
2019-05-26T19:52:10.444Z,18.86
2019-05-26T19:53:45.074Z,18.87
2019-05-26T19:55:20.388Z,18.84
2019-05-26T19:56:55.231Z,18.85
2019-05-26T19:58:30.476Z,18.78
2019-05-26T20:00:07.695Z,18.79
2019-05-26T20:01:42.983Z,18.85
2019-05-26T20:03:17.658Z,18.86
2019-05-26T20:04:53.261Z,18.87
2019-05-26T20:06:27.921Z,18.82
2019-05-26T20:08:03.330Z,18.81
2019-05-26T20:09:38.015Z,18.85
2019-05-26T20:11:13.278Z,18.81
2019-05-26T20:12:47.910Z,18.84
2019-05-26T20:14:26.113Z,18.80
2019-05-26T20:16:00.733Z,18.78
2019-05-26T20:17:44.243Z,18.80
2019-05-26T20:19:18.894Z,18.77
2019-05-26T20:20:54.229Z,18.77
2019-05-26T20:22:28.959Z,18.74
2019-05-26T20:24:04.341Z,18.74
2019-05-26T20:25:39.002Z,18.73
2019-05-26T20:27:14.229Z,18.72
2019-05-26T20:28:49.013Z,18.72
2019-05-26T20:30:24.696Z,18.76
2019-05-26T20:31:59.376Z,18.69
2019-05-26T20:33:35.689Z,18.67
2019-05-26T20:35:10.430Z,18.68
2019-05-26T20:36:45.677Z,18.65
2019-05-26T20:38:20.286Z,18.63
2019-05-26T20:39:55.560Z,18.66
2019-05-26T20:41:30.232Z,18.56
2019-05-26T20:43:05.625Z,18.63
2019-05-26T20:44:40.296Z,18.66
2019-05-26T20:46:15.682Z,18.67
2019-05-26T20:47:50.445Z,18.63
2019-05-26T20:49:25.708Z,18.67
2019-05-26T20:51:00.388Z,18.64
2019-05-26T20:52:35.717Z,18.65